createdAt,value
2019-04-28T00:01:13.651Z,34.02
2019-04-28T00:06:21.227Z,35.90
2019-04-28T00:11:43.424Z,35.58
2019-04-28T00:16:45.243Z,34.58
2019-04-28T00:21:32.562Z,34.91
2019-04-28T00:26:41.311Z,33.77
2019-04-28T00:32:01.371Z,37.09
2019-04-28T00:41:54.312Z,31.78
2019-04-28T00:47:01.690Z,35.59
2019-04-28T00:57:14.200Z,45.56
2019-04-28T01:02:25.707Z,38.56
2019-04-28T01:07:36.076Z,45.70
2019-04-28T01:12:38.124Z,36.89
2019-04-28T01:17:26.532Z,43.31
2019-04-28T01:22:46.577Z,45.14
2019-04-28T01:27:35.917Z,33.82
2019-04-28T01:32:44.475Z,30.46
2019-04-28T01:37:53.952Z,34.18
2019-04-28T01:43:14.195Z,34.30
2019-04-28T01:48:15.806Z,32.89
2019-04-28T01:53:17.076Z,37.36
2019-04-28T01:58:20.280Z,36.00
2019-04-28T02:03:17.816Z,28.66
2019-04-28T02:13:07.021Z,36.54
2019-04-28T02:18:15.436Z,35.55
2019-04-28T02:23:36.611Z,37.56
2019-04-28T02:28:24.946Z,43.07
2019-04-28T02:33:47.310Z,40.44
2019-04-28T02:38:47.464Z,38.03
2019-04-28T02:43:35.923Z,46.61
2019-04-28T02:48:56.448Z,43.79
2019-04-28T02:53:43.756Z,34.85
2019-04-28T02:59:04.164Z,38.19
2019-04-28T03:04:04.374Z,38.19
2019-04-28T03:09:04.850Z,29.16
2019-04-28T03:14:05.086Z,32.87
2019-04-28T03:18:52.577Z,28.36
2019-04-28T03:24:13.308Z,34.75
2019-04-28T03:34:14.026Z,38.16
2019-04-28T03:49:03.162Z,28.24
2019-04-28T03:54:11.701Z,30.20
2019-04-28T03:59:32.190Z,34.21
2019-04-28T04:04:33.598Z,32.20
2019-04-28T04:19:22.812Z,35.80
2019-04-28T04:24:44.967Z,38.36
2019-04-28T04:29:45.219Z,30.25
2019-04-28T04:34:45.330Z,38.72
2019-04-28T04:39:33.632Z,39.31
2019-04-28T04:44:54.835Z,33.32
2019-04-28T04:54:43.177Z,26.50
2019-04-28T05:10:16.091Z,30.47
2019-04-28T05:15:17.420Z,33.32
2019-04-28T05:25:11.839Z,34.39
2019-04-28T05:40:35.223Z,31.71
2019-04-28T05:45:23.673Z,30.18
2019-04-28T05:50:31.264Z,40.79
2019-04-28T05:55:39.362Z,35.98
2019-04-28T06:00:46.091Z,31.48
2019-04-28T06:06:06.383Z,41.06
2019-04-28T06:11:06.787Z,34.72
2019-04-28T06:16:06.967Z,35.29
2019-04-28T06:26:14.805Z,36.67
2019-04-28T06:36:19.803Z,27.67
2019-04-28T06:41:20.989Z,34.28
2019-04-28T06:46:22.352Z,34.59
2019-04-28T06:51:22.520Z,41.12
2019-04-28T06:56:24.666Z,28.85
2019-04-28T07:01:12.191Z,33.56
2019-04-28T07:06:33.123Z,31.66
2019-04-28T07:11:21.739Z,33.63
2019-04-28T07:16:45.211Z,31.58
2019-04-28T07:21:45.790Z,28.49
2019-04-28T07:26:46.078Z,31.78
2019-04-28T07:36:41.649Z,22.34
2019-04-28T07:41:51.169Z,25.48
2019-04-28T07:47:20.559Z,23.54
2019-04-28T07:52:20.929Z,26.04
2019-04-28T07:57:09.354Z,19.13
2019-04-28T08:02:29.446Z,20.46
2019-04-28T08:07:17.653Z,23.38
2019-04-28T08:12:24.968Z,18.23
2019-04-28T08:17:36.925Z,21.56
2019-04-28T08:22:47.281Z,16.54
2019-04-28T08:27:34.715Z,17.64
2019-04-28T08:32:41.952Z,17.87
2019-04-28T08:37:50.081Z,16.11
2019-04-28T08:42:58.418Z,14.34
2019-04-28T08:48:08.104Z,14.27
2019-04-28T08:53:28.362Z,9.46
2019-04-28T08:58:20.503Z,14.12
2019-04-28T09:03:20.613Z,12.11
2019-04-28T09:08:33.722Z,11.05
2019-04-28T09:13:22.209Z,11.69
2019-04-28T09:18:29.517Z,8.55
2019-04-28T09:28:55.556Z,9.71
2019-04-28T09:33:43.163Z,11.16
2019-04-28T09:38:50.492Z,8.79
2019-04-28T09:44:10.861Z,10.84
2019-04-28T09:54:06.805Z,3.15
2019-04-28T09:59:19.548Z,2.99
2019-04-28T10:04:41.445Z,5.33
2019-04-28T10:09:24.364Z,4.34
2019-04-28T10:14:47.949Z,4.10
2019-04-28T10:19:36.318Z,4.66
2019-04-28T10:24:43.725Z,3.23
2019-04-28T10:29:51.133Z,4.12
2019-04-28T10:35:11.821Z,4.84
2019-04-28T10:45:04.094Z,2.85
2019-04-28T10:50:24.320Z,2.37
2019-04-28T10:55:11.610Z,3.42
2019-04-28T11:00:21.297Z,2.18
2019-04-28T11:05:42.534Z,2.73
2019-04-28T11:10:30.742Z,3.64
2019-04-28T11:15:38.185Z,2.94
2019-04-28T11:20:46.430Z,3.71
2019-04-28T11:25:53.814Z,2.75
2019-04-28T11:31:02.229Z,8.15
2019-04-28T11:36:10.807Z,10.89
2019-04-28T11:41:17.267Z,14.14
2019-04-28T11:51:27.670Z,11.36
2019-04-28T11:56:41.734Z,11.46
2019-04-28T12:01:46.210Z,13.80
2019-04-28T12:06:58.662Z,14.88
2019-04-28T12:11:56.892Z,11.76
2019-04-28T12:17:05.247Z,13.17
2019-04-28T12:22:25.320Z,14.50
2019-04-28T12:27:13.633Z,13.81
2019-04-28T12:32:21.845Z,16.81
2019-04-28T12:37:30.021Z,16.84
2019-04-28T12:42:44.553Z,12.26
2019-04-28T12:47:41.864Z,14.39
2019-04-28T12:53:02.185Z,14.05
2019-04-28T12:57:49.618Z,14.16
2019-04-28T13:08:14.682Z,14.10
2019-04-28T13:13:14.827Z,12.28
2019-04-28T13:18:03.183Z,13.05
2019-04-28T13:23:11.550Z,14.13
2019-04-28T13:28:19.676Z,14.85
2019-04-28T13:33:55.397Z,11.52
2019-04-28T13:38:28.219Z,11.68
2019-04-28T13:43:48.354Z,13.63
2019-04-28T13:48:51.487Z,14.49
2019-04-28T13:58:56.396Z,10.08
2019-04-28T14:03:43.691Z,12.62
2019-04-28T14:09:03.839Z,13.93
2019-04-28T14:14:06.134Z,12.12
2019-04-28T14:19:08.327Z,12.09
2019-04-28T14:24:08.623Z,12.75
2019-04-28T14:29:08.839Z,11.72
2019-04-28T14:34:09.865Z,11.31
2019-04-28T14:39:12.271Z,9.68
2019-04-28T14:43:59.669Z,13.00
2019-04-28T14:49:19.891Z,11.02
2019-04-28T14:54:20.847Z,11.39
2019-04-28T14:59:09.214Z,12.03
2019-04-28T15:09:21.135Z,8.48
2019-04-28T15:14:29.242Z,11.54
2019-04-28T15:19:37.627Z,13.18
2019-04-28T15:24:57.729Z,12.72
2019-04-28T15:29:59.066Z,11.22
2019-04-28T15:39:54.591Z,11.16
2019-04-28T15:45:14.773Z,9.11
2019-04-28T15:50:06.176Z,7.80
2019-04-28T15:55:03.331Z,13.89
2019-04-28T16:00:24.566Z,11.22
2019-04-28T16:05:12.979Z,10.15
2019-04-28T16:15:35.107Z,9.97
2019-04-28T16:20:23.539Z,12.74
2019-04-28T16:30:38.531Z,13.52
2019-04-28T16:35:46.770Z,9.92
2019-04-28T16:40:55.077Z,11.79
2019-04-28T16:46:15.246Z,10.61
2019-04-28T16:56:20.359Z,13.37
2019-04-28T17:01:08.158Z,13.99
2019-04-28T17:06:15.542Z,12.33
2019-04-28T17:11:23.021Z,11.53
2019-04-28T17:16:30.254Z,11.43
2019-04-28T17:21:50.465Z,11.95
2019-04-28T17:26:38.735Z,12.98
2019-04-28T17:31:45.944Z,12.05
2019-04-28T17:37:07.141Z,14.88
2019-04-28T17:41:54.643Z,11.27
2019-04-28T17:47:02.927Z,14.06
2019-04-28T17:52:24.012Z,13.15
2019-04-28T17:57:14.621Z,15.64
2019-04-28T18:02:22.919Z,14.32
2019-04-28T18:07:31.055Z,12.81
2019-04-28T18:13:00.469Z,12.12
2019-04-28T18:17:38.570Z,14.31
2019-04-28T18:27:59.653Z,14.85
2019-04-28T18:32:47.858Z,14.67
2019-04-28T18:38:08.055Z,12.67
2019-04-28T18:43:08.403Z,16.84
2019-04-28T18:48:08.776Z,13.62
2019-04-28T18:52:57.147Z,14.94
2019-04-28T18:58:05.787Z,16.95
2019-04-28T19:03:13.196Z,16.79
2019-04-28T19:08:20.470Z,15.74
2019-04-28T19:13:27.746Z,16.49
2019-04-28T19:18:36.037Z,17.85
2019-04-28T19:23:44.019Z,14.87
2019-04-28T19:29:04.140Z,13.43
2019-04-28T19:33:52.485Z,16.90
2019-04-28T19:39:12.696Z,15.44
2019-04-28T19:44:00.065Z,13.78
2019-04-28T19:59:28.780Z,16.65
2019-04-28T20:04:16.128Z,18.05
2019-04-28T20:09:36.354Z,13.77
2019-04-28T20:14:23.481Z,13.46
2019-04-28T20:19:44.702Z,12.90
2019-04-28T20:24:31.988Z,15.40
2019-04-28T20:29:39.180Z,15.15
2019-04-28T20:34:47.492Z,15.55
2019-04-28T20:39:54.885Z,12.76
2019-04-28T20:45:02.150Z,16.20
2019-04-28T20:50:23.347Z,13.05
2019-04-28T20:55:10.706Z,14.02
2019-04-28T21:00:30.897Z,21.30
2019-04-28T21:05:32.219Z,15.57
2019-04-28T21:15:23.351Z,13.64
2019-04-28T21:20:31.571Z,18.56
2019-04-28T21:25:39.965Z,18.00
2019-04-28T21:30:48.476Z,16.09
2019-04-28T21:36:08.865Z,16.57
2019-04-28T21:41:09.061Z,14.76
2019-04-28T21:45:56.259Z,13.70
2019-04-28T21:51:18.421Z,18.08
2019-04-28T21:56:05.834Z,14.35
2019-04-28T22:01:14.217Z,16.03
2019-04-28T22:06:35.274Z,19.32
2019-04-28T22:11:35.368Z,21.18
2019-04-28T22:16:23.840Z,17.71
2019-04-28T22:21:45.179Z,18.69
2019-04-28T22:26:32.736Z,14.54
2019-04-28T22:31:39.940Z,16.20
2019-04-28T22:37:01.332Z,22.37
2019-04-28T22:47:02.696Z,19.15
2019-04-28T22:51:54.829Z,18.83
2019-04-28T22:56:53.243Z,17.91
2019-04-28T23:07:21.506Z,20.56
2019-04-28T23:12:22.552Z,20.12
2019-04-28T23:17:10.831Z,19.15
2019-04-28T23:22:19.268Z,20.20
2019-04-28T23:27:26.664Z,16.81
2019-04-28T23:32:33.872Z,21.33
2019-04-28T23:37:42.054Z,15.76
2019-04-28T23:43:03.093Z,15.68
2019-04-28T23:47:51.692Z,18.05
2019-04-28T23:52:58.997Z,16.61
2019-04-28T23:58:08.399Z,22.59
